createdAt,value
2023-01-02T00:01:07.074Z,13.90
2023-01-02T00:05:28.760Z,13.90
2023-01-02T00:09:47.809Z,13.90
2023-01-02T00:14:05.982Z,13.90
2023-01-02T00:18:24.172Z,13.90
2023-01-02T00:22:43.157Z,13.90
2023-01-02T00:27:03.025Z,13.90
2023-01-02T00:31:21.446Z,13.80
2023-01-02T00:35:39.854Z,13.80
2023-01-02T00:39:58.821Z,13.80
2023-01-02T00:44:18.249Z,13.80
2023-01-02T00:48:36.341Z,13.80
2023-01-02T00:52:55.171Z,13.90
2023-01-02T00:57:14.860Z,13.90
2023-01-02T01:01:33.851Z,13.90
2023-01-02T01:05:51.639Z,13.90
2023-01-02T01:10:09.732Z,14.00
2023-01-02T01:14:30.279Z,14.00
2023-01-02T01:18:49.051Z,14.10
2023-01-02T01:23:06.932Z,14.20
2023-01-02T01:27:25.375Z,14.20
2023-01-02T01:31:44.445Z,14.30
2023-01-02T01:36:04.983Z,14.40
2023-01-02T01:40:22.245Z,14.40
2023-01-02T01:44:46.334Z,14.50
2023-01-02T01:49:11.254Z,14.50
2023-01-02T01:53:28.689Z,14.50
2023-01-02T01:57:49.914Z,14.60
2023-01-02T02:02:08.486Z,14.50
2023-01-02T02:06:27.295Z,14.60
2023-01-02T02:10:47.937Z,14.60
2023-01-02T02:15:11.177Z,14.50
2023-01-02T02:20:06.011Z,14.60
2023-01-02T02:25:02.849Z,14.60
2023-01-02T02:29:58.303Z,14.60
2023-01-02T02:34:26.320Z,14.60
2023-01-02T02:38:55.397Z,14.60
2023-01-02T02:43:21.781Z,14.50
2023-01-02T02:47:47.641Z,14.50
2023-01-02T02:52:13.923Z,14.40
2023-01-02T02:56:33.771Z,14.50
2023-01-02T03:00:51.543Z,14.40
2023-01-02T03:05:13.494Z,14.40
2023-01-02T03:09:39.838Z,14.30
2023-01-02T03:14:06.999Z,14.30
2023-01-02T03:18:34.082Z,14.30
2023-01-02T03:22:59.410Z,14.30
2023-01-02T03:27:23.540Z,14.30
2023-01-02T03:31:43.374Z,14.30
2023-01-02T03:36:05.824Z,14.20
2023-01-02T03:40:27.443Z,14.30
2023-01-02T03:44:56.066Z,14.30
2023-01-02T03:49:20.336Z,14.30
2023-01-02T03:53:40.919Z,14.30
2023-01-02T03:58:08.974Z,14.40
2023-01-02T04:02:35.815Z,14.30
2023-01-02T04:07:02.701Z,14.40
2023-01-02T04:11:23.841Z,14.40
2023-01-02T04:15:45.206Z,14.40
2023-01-02T04:20:12.427Z,14.40
2023-01-02T04:24:34.782Z,14.30
2023-01-02T04:28:52.512Z,14.40
2023-01-02T04:33:13.393Z,14.30
2023-01-02T04:37:36.361Z,14.30
2023-01-02T04:41:55.905Z,14.30
2023-01-02T04:46:14.195Z,14.30
2023-01-02T04:50:32.034Z,14.30
2023-01-02T04:54:54.700Z,14.30
2023-01-02T04:59:14.054Z,14.20
2023-01-02T05:03:32.223Z,14.20
2023-01-02T05:07:50.504Z,14.20
2023-01-02T05:12:09.804Z,14.20
2023-01-02T05:16:29.446Z,14.20
2023-01-02T05:20:47.681Z,14.10
2023-01-02T05:25:06.113Z,14.10
2023-01-02T05:29:28.303Z,14.10
2023-01-02T05:33:52.199Z,14.00
2023-01-02T05:38:12.163Z,14.00
2023-01-02T05:42:30.495Z,14.00
2023-01-02T05:46:49.751Z,14.00
2023-01-02T05:51:11.855Z,13.90
2023-01-02T05:55:30.362Z,14.00
2023-01-02T05:59:48.425Z,14.00
2023-01-02T06:04:08.354Z,14.00
2023-01-02T06:08:27.718Z,14.10
2023-01-02T06:12:45.951Z,14.10
2023-01-02T06:17:03.817Z,14.10
2023-01-02T06:21:24.173Z,14.10
2023-01-02T06:25:43.338Z,14.20
2023-01-02T06:30:01.089Z,14.20
2023-01-02T06:34:19.301Z,14.20
2023-01-02T06:38:38.854Z,14.20
2023-01-02T06:43:00.277Z,14.20
2023-01-02T06:47:19.452Z,14.20
2023-01-02T06:51:37.442Z,14.20
2023-01-02T06:55:58.717Z,14.20
2023-01-02T07:00:18.043Z,14.20
2023-01-02T07:04:37.808Z,14.20
2023-01-02T07:08:55.942Z,14.30
2023-01-02T07:13:15.235Z,14.30
2023-01-02T07:17:35.399Z,14.20
2023-01-02T07:21:53.007Z,14.10
2023-01-02T07:26:11.760Z,14.00
2023-01-02T07:30:30.647Z,13.90
2023-01-02T07:34:50.798Z,13.90
2023-01-02T07:39:08.751Z,13.90
2023-01-02T07:43:26.610Z,14.00
2023-01-02T07:47:45.972Z,14.00
2023-01-02T07:52:06.055Z,14.00
2023-01-02T07:56:23.663Z,14.00
2023-01-02T08:00:41.778Z,14.00
2023-01-02T08:05:01.070Z,14.10
2023-01-02T08:09:21.207Z,14.10
2023-01-02T08:13:39.215Z,14.10
2023-01-02T08:17:58.355Z,14.10
2023-01-02T08:22:19.669Z,14.10
2023-01-02T08:26:39.272Z,14.10
2023-01-02T08:30:57.996Z,14.10
2023-01-02T08:35:15.504Z,14.10
2023-01-02T08:39:34.851Z,14.10
2023-01-02T08:43:54.981Z,14.10
2023-01-02T08:48:19.802Z,14.10
2023-01-02T08:52:40.150Z,14.10
2023-01-02T08:56:59.507Z,14.10
2023-01-02T09:01:20.009Z,14.10
2023-01-02T09:05:37.109Z,14.10
2023-01-02T09:09:55.231Z,14.20
2023-01-02T09:14:14.846Z,14.30
2023-01-02T09:18:34.501Z,14.30
2023-01-02T09:22:52.378Z,14.40
2023-01-02T09:27:10.386Z,14.40
2023-01-02T09:31:30.492Z,14.40
2023-01-02T09:35:49.724Z,14.50
2023-01-02T09:40:08.942Z,14.50
2023-01-02T09:44:36.405Z,14.50
2023-01-02T09:48:57.708Z,14.50
2023-01-02T09:53:17.818Z,14.50
2023-01-02T09:57:45.047Z,14.60
2023-01-02T10:02:15.117Z,14.60
2023-01-02T10:06:41.348Z,14.60
2023-01-02T10:11:09.227Z,14.60
2023-01-02T10:15:30.493Z,14.70
2023-01-02T10:19:54.923Z,14.80
2023-01-02T10:24:19.180Z,14.80
2023-01-02T10:28:45.415Z,14.90
2023-01-02T10:33:12.217Z,15.00
2023-01-02T10:37:32.158Z,15.10
2023-01-02T10:41:57.203Z,15.10
2023-01-02T10:46:16.837Z,15.20
2023-01-02T10:50:42.359Z,15.20
2023-01-02T10:55:03.253Z,15.20
2023-01-02T10:59:24.010Z,15.30
2023-01-02T11:03:41.521Z,15.40
2023-01-02T11:08:00.240Z,15.60
2023-01-02T11:12:20.270Z,15.80
2023-01-02T11:16:43.411Z,15.90
2023-01-02T11:21:06.525Z,16.00
2023-01-02T11:25:26.610Z,16.30
2023-01-02T11:29:48.802Z,16.40
2023-01-02T11:34:20.329Z,16.60
2023-01-02T11:38:45.277Z,16.70
2023-01-02T11:43:25.558Z,16.80
2023-01-02T11:47:46.414Z,16.80
2023-01-02T11:52:07.876Z,16.70
2023-01-02T11:56:29.911Z,16.70
2023-01-02T12:00:55.647Z,16.60
2023-01-02T12:05:16.518Z,16.60
2023-01-02T12:09:50.788Z,16.50
2023-01-02T12:14:15.177Z,16.40
2023-01-02T12:18:55.226Z,16.30
2023-01-02T12:23:28.878Z,16.40
2023-01-02T12:27:59.629Z,16.50
2023-01-02T12:32:59.364Z,16.50
2023-01-02T12:37:34.154Z,16.60
2023-01-02T12:42:04.256Z,16.60
2023-01-02T12:46:40.964Z,16.50
2023-01-02T12:51:08.898Z,16.40
2023-01-02T12:55:38.416Z,16.30
2023-01-02T13:00:23.169Z,16.30
2023-01-02T13:04:48.056Z,16.20
2023-01-02T13:09:21.781Z,16.20
2023-01-02T13:13:41.469Z,16.20
2023-01-02T13:18:04.334Z,16.10
2023-01-02T13:22:35.163Z,16.10
2023-01-02T13:26:55.634Z,16.20
2023-01-02T13:31:47.039Z,16.10
2023-01-02T13:36:01.507Z,16.10
2023-01-02T13:40:27.554Z,16.20
2023-01-02T13:44:49.670Z,16.10
2023-01-02T13:49:13.387Z,16.20
2023-01-02T13:53:40.894Z,16.20
2023-01-02T13:58:38.558Z,16.20
2023-01-02T14:03:33.870Z,16.20
2023-01-02T14:07:51.879Z,16.10
2023-01-02T14:12:14.072Z,16.10
2023-01-02T14:17:03.218Z,16.00
2023-01-02T14:21:22.814Z,15.90
2023-01-02T14:25:47.743Z,15.90
2023-01-02T14:30:13.607Z,15.80
2023-01-02T14:34:35.315Z,15.70
2023-01-02T14:38:57.778Z,15.70
2023-01-02T14:43:34.071Z,15.60
2023-01-02T14:47:57.069Z,15.50
2023-01-02T14:52:23.078Z,15.50
2023-01-02T14:56:44.980Z,15.40
2023-01-02T15:01:06.576Z,15.40
2023-01-02T15:05:34.613Z,15.40
2023-01-02T15:09:56.407Z,15.30
2023-01-02T15:14:23.572Z,15.30
2023-01-02T15:18:46.787Z,15.20
2023-01-02T15:23:20.791Z,15.20
2023-01-02T15:27:39.817Z,15.10
2023-01-02T15:32:01.593Z,15.10
2023-01-02T15:36:32.942Z,15.00
2023-01-02T15:40:51.256Z,15.00
2023-01-02T15:45:15.543Z,14.90
2023-01-02T15:49:33.210Z,14.90
2023-01-02T15:53:51.270Z,14.80
2023-01-02T15:58:28.084Z,14.70
2023-01-02T16:02:47.085Z,14.70
2023-01-02T16:07:16.118Z,14.60
2023-01-02T16:11:44.999Z,14.50
2023-01-02T16:16:15.875Z,14.50
2023-01-02T16:20:36.933Z,14.50
2023-01-02T16:25:02.390Z,14.40
2023-01-02T16:29:22.992Z,14.40
2023-01-02T16:33:41.953Z,14.40
2023-01-02T16:38:06.049Z,14.30
2023-01-02T16:42:36.668Z,14.30
2023-01-02T16:47:03.556Z,14.20
2023-01-02T16:51:21.402Z,14.20
2023-01-02T16:55:40.402Z,14.10
2023-01-02T16:59:59.967Z,14.10
2023-01-02T17:04:18.032Z,14.10
2023-01-02T17:08:36.297Z,14.00
2023-01-02T17:12:55.609Z,14.00
2023-01-02T17:17:15.310Z,14.00
2023-01-02T17:21:33.607Z,13.90
2023-01-02T17:25:51.844Z,13.80
2023-01-02T17:30:16.295Z,13.80
2023-01-02T17:34:37.156Z,13.70
2023-01-02T17:38:55.313Z,13.60
2023-01-02T17:43:12.921Z,13.40
2023-01-02T17:47:58.748Z,13.20
2023-01-02T17:52:12.568Z,13.00
2023-01-02T17:56:31.735Z,12.70
2023-01-02T18:00:50.045Z,12.50
2023-01-02T18:05:10.349Z,12.30
2023-01-02T18:09:29.364Z,12.10
2023-01-02T18:13:50.332Z,12.00
2023-01-02T18:18:15.864Z,11.80
2023-01-02T18:22:37.624Z,11.70
2023-01-02T18:27:11.966Z,11.60
2023-01-02T18:31:33.632Z,11.50
2023-01-02T18:35:57.887Z,11.40
2023-01-02T18:40:27.981Z,11.40
2023-01-02T18:44:45.795Z,11.30
2023-01-02T18:49:14.995Z,11.20
2023-01-02T18:53:40.322Z,11.20
2023-01-02T18:58:02.881Z,11.20
2023-01-02T19:02:30.036Z,11.10
2023-01-02T19:06:51.417Z,11.10
2023-01-02T19:11:29.755Z,11.00
2023-01-02T19:15:53.790Z,11.00
2023-01-02T19:20:12.995Z,10.90
2023-01-02T19:24:38.312Z,10.80
2023-01-02T19:28:59.474Z,10.80
2023-01-02T19:33:40.085Z,10.80
2023-01-02T19:37:58.398Z,10.70
2023-01-02T19:42:22.004Z,10.60
2023-01-02T19:46:39.788Z,10.60
2023-01-02T19:50:59.139Z,10.50
2023-01-02T19:55:19.495Z,10.50
2023-01-02T19:59:43.364Z,10.50
2023-01-02T20:04:01.141Z,10.50
2023-01-02T20:08:20.687Z,10.40
2023-01-02T20:12:41.643Z,10.40
2023-01-02T20:17:01.860Z,10.30
2023-01-02T20:21:22.016Z,10.30
2023-01-02T20:25:42.248Z,10.30
2023-01-02T20:30:01.816Z,10.20
2023-01-02T20:34:20.441Z,10.20
2023-01-02T20:38:38.513Z,10.20
2023-01-02T20:42:57.261Z,10.20
2023-01-02T20:47:17.435Z,10.20
2023-01-02T20:51:35.380Z,10.20
2023-01-02T20:55:53.196Z,10.20
2023-01-02T21:00:14.164Z,10.10
2023-01-02T21:04:36.717Z,10.10
2023-01-02T21:08:56.451Z,10.20
2023-01-02T21:13:14.647Z,10.20
2023-01-02T21:17:33.947Z,10.20
2023-01-02T21:21:53.688Z,10.20
2023-01-02T21:26:14.338Z,10.20
2023-01-02T21:30:33.669Z,10.30
2023-01-02T21:34:52.566Z,10.20
2023-01-02T21:39:12.251Z,10.10
2023-01-02T21:43:30.216Z,10.00
2023-01-02T21:47:48.979Z,9.90
2023-01-02T21:52:07.943Z,9.80
2023-01-02T21:56:27.389Z,9.80
2023-01-02T22:00:45.507Z,9.80
2023-01-02T22:05:03.553Z,9.80
2023-01-02T22:09:23.198Z,9.80
2023-01-02T22:13:42.730Z,9.70
2023-01-02T22:18:00.781Z,9.70
2023-01-02T22:22:18.959Z,9.70
2023-01-02T22:26:40.137Z,9.70
2023-01-02T22:30:58.994Z,9.70
2023-01-02T22:35:19.329Z,9.70
2023-01-02T22:39:38.867Z,9.60
2023-01-02T22:44:01.950Z,9.60
2023-01-02T22:48:23.006Z,9.50
2023-01-02T22:52:40.607Z,9.50
2023-01-02T22:56:58.779Z,9.50
2023-01-02T23:01:20.369Z,9.40
2023-01-02T23:05:41.280Z,9.40
2023-01-02T23:09:58.982Z,9.30
2023-01-02T23:14:17.097Z,9.20
2023-01-02T23:18:56.890Z,9.10
2023-01-02T23:23:14.669Z,9.00
2023-01-02T23:27:33.662Z,8.90
2023-01-02T23:31:52.041Z,8.80
2023-01-02T23:36:13.380Z,8.70
2023-01-02T23:40:34.474Z,8.60
2023-01-02T23:44:54.172Z,8.60
2023-01-02T23:49:12.794Z,8.60
2023-01-02T23:53:35.224Z,8.60
2023-01-02T23:57:54.485Z,8.70
